Monday, November 20, 2017, 2:07 PM EST
Back to Local

KMHT, Manchester Airport

Location: Manchester, NH, United States Lat: 42.933
Local Time: 2:07 PM EST (19:07 GMT) Lon: -71.433
Time Zone: US/Eastern Elev: 232 ft

Show me the last for .
Show Decoded

2017-11-20 13:53 METAR KMHT 201853Z 27010G21KT 10SM SCT065 04/M09 A2984 RMK AO2 SLP122 T00441094
                 =
2017-11-20 12:53 METAR KMHT 201753Z 28015G25KT 10SM BKN070 04/M11 A2984 RMK AO2 SLP121 T00441111
                 10044 20006 58004 =
2017-11-20 11:53 METAR KMHT 201653Z 30014G22KT 10SM SCT070 04/M12 A2985 RMK AO2 PK WND 28030/1607
                 SLP124 T00391117 =
2017-11-20 10:53 METAR KMHT 201553Z 31013G27KT 10SM SCT070 SCT200 03/M12 A2985 RMK AO2 PK WND
                 31028/1518 SLP127 T00331117 =
2017-11-20 09:53 METAR KMHT 201453Z 31017G21KT 10SM SCT060 SCT200 03/M12 A2985 RMK AO2 PK WND
                 31034/1412 SLP127 T00281117 51024 =
2017-11-20 08:53 METAR KMHT 201353Z 29014G22KT 10SM SCT060 02/M12 A2984 RMK AO2 PK WND 30029/1324
                 SLP122 T00171122 =
2017-11-20 07:53 METAR KMHT 201253Z 28012G20KT 10SM SCT050 01/M12 A2982 RMK AO2 SLP114 T00111122
                 =
2017-11-20 06:53 METAR KMHT 201153Z 27010G16KT 10SM SCT050 01/M08 A2978 RMK AO2 SLP102 70007
                 T00061083 10017 21022 53028 =
2017-11-20 05:53 METAR KMHT 201053Z VRB04KT 10SM SCT050 BKN065 M01/M06 A2975 RMK AO2 SLP091
                 T10061061 =
2017-11-20 04:53 METAR KMHT 200953Z 00000KT 10SM SCT050 BKN065 01/M06 A2972 RMK AO2 SLP081
                 T00061061 =
2017-11-20 03:53 METAR KMHT 200853Z 24004KT 10SM CLR 01/M06 A2970 RMK AO2 SLP073 T00061061 51022
                 =
2017-11-20 02:53 METAR KMHT 200753Z 00000KT 10SM CLR M02/M06 A2968 RMK AO2 SLP067 T10221056 =
2017-11-20 01:53 METAR KMHT 200653Z 00000KT 10SM CLR 01/M06 A2966 RMK AO2 SLP060 T00061056 =
2017-11-20 00:53 METAR KMHT 200553Z 28006KT 10SM FEW048 02/M06 A2963 RMK AO2 SLP051 T00171056
                 10039 20017 51015 =
2017-11-19 23:53 METAR KMHT 200453Z 27005KT 10SM FEW046 02/M06 A2962 RMK AO2 SLP047 T00171056
                 401440017 =
2017-11-19 22:53 METAR KMHT 200353Z 26004KT 10SM SCT046 02/M06 A2960 RMK AO2 SLP039 T00221061 =
2017-11-19 21:53 METAR KMHT 200253Z 29005KT 10SM BKN048 02/M06 A2959 RMK AO2 SLP034 T00221056
                 51029 =
2017-11-19 20:53 METAR KMHT 200153Z 30007KT 10SM BKN043 03/M06 A2957 RMK AO2 SLP028 T00281056 =
2017-11-19 19:53 METAR KMHT 200053Z 29011G17KT 10SM BKN043 03/M06 A2954 RMK AO2 SLP018 T00331056
                 =
2017-11-19 18:53 METAR KMHT 192353Z 29009G18KT 10SM BKN043 04/M04 A2950 RMK AO2 SLP005 T00391044
                 10094 20039 51047 =
2017-11-19 17:53 METAR KMHT 192253Z 29011G23KT 10SM BKN040 04/M04 A2945 RMK AO2 PK WND 28029/2243
                 SLP990 T00391044 =
2017-11-19 16:53 METAR KMHT 192153Z 30012G19KT 10SM FEW042 05/M03 A2941 RMK AO2 PK WND 30030/2130
                 SLP975 T00501033 =
2017-11-19 15:53 METAR KMHT 192053Z 29015G26KT 10SM SCT042 06/M03 A2936 RMK AO2 PK WND 29030/2038
                 SLP958 T00611028 53055 =
2017-11-19 14:53 METAR KMHT 191953Z 29013G31KT 10SM BKN040 07/M02 A2929 RMK AO2 PK WND 31034/1855
                 SLP934 T00721017 =

Support USWX by starting your Amazon purchase here.